Time;durP1;ratioP1;P1;durP2;ratioP2;P2;SDS_P1;SDS_P2;PMS_P1;PMS_P2;Temp;Humidity;BMP_temperature;BMP_pressure;BME280_temperature;BME280_humidity;BME280_pressure;Samples;Min_cycle;Max_cycle;Signal;HPM_P1;HPM_P2
2022/03/15 00:02:08;;;;;;;14.32;4.82;;;8.70;99.90;;;;;;5023122;28;20017;-39
2022/03/15 00:04:34;;;;;;;11.23;4.20;;;8.60;99.90;;;;;;5018170;28;20029;-33
2022/03/15 00:06:59;;;;;;;13.30;4.78;;;8.50;99.90;;;;;;5015914;28;20109;-34
2022/03/15 00:09:25;;;;;;;13.43;4.25;;;8.40;99.90;;;;;;5015187;28;20026;-32
2022/03/15 00:11:54;;;;;;;20.02;5.20;;;8.30;99.90;;;;;;5015413;28;20032;-34
2022/03/15 00:14:20;;;;;;;12.43;4.57;;;8.30;99.90;;;;;;5027237;28;20030;-36
2022/03/15 00:16:46;;;;;;;12.77;4.82;;;8.30;99.90;;;;;;5019745;28;20026;-33
2022/03/15 00:19:12;;;;;;;10.52;4.55;;;8.20;99.90;;;;;;5015056;28;20064;-39
2022/03/15 00:21:38;;;;;;;12.25;4.43;;;8.20;99.90;;;;;;5015130;28;20401;-32
2022/03/15 00:24:06;;;;;;;12.45;4.65;;;8.10;99.90;;;;;;5027799;28;20018;-35
2022/03/15 00:26:32;;;;;;;9.75;4.80;;;8.10;99.90;;;;;;5034669;28;20044;-34
2022/03/15 00:28:57;;;;;;;10.63;4.63;;;8.10;99.90;;;;;;5030036;28;20522;-37
2022/03/15 00:31:23;;;;;;;17.08;5.13;;;8.00;99.90;;;;;;5015740;28;20101;-36
2022/03/15 00:33:48;;;;;;;11.82;5.63;;;8.00;99.90;;;;;;5016237;28;20029;-38
2022/03/15 00:36:14;;;;;;;10.13;5.25;;;7.90;99.90;;;;;;5025040;28;20021;-38
2022/03/15 00:38:41;;;;;;;16.92;5.38;;;8.00;99.90;;;;;;5023747;28;20101;-38
2022/03/15 00:41:08;;;;;;;15.63;5.05;;;8.00;99.90;;;;;;5018291;28;20109;-38
2022/03/15 00:43:34;;;;;;;9.82;4.68;;;8.10;99.90;;;;;;5019562;28;20533;-38
2022/03/15 00:46:00;;;;;;;10.15;5.30;;;8.20;99.90;;;;;;5021490;28;20025;-39
2022/03/15 00:48:26;;;;;;;13.63;4.80;;;8.20;99.90;;;;;;5017417;28;20025;-40
2022/03/15 00:50:51;;;;;;;13.10;4.90;;;8.20;99.90;;;;;;5014519;28;20030;-39
2022/03/15 00:53:17;;;;;;;13.82;5.13;;;8.20;99.90;;;;;;5020928;28;20545;-40
2022/03/15 00:55:43;;;;;;;10.45;4.47;;;8.10;99.90;;;;;;5028290;28;20116;-38
2022/03/15 00:58:10;;;;;;;14.57;5.15;;;8.00;99.90;;;;;;5024470;28;20032;-34
2022/03/15 01:00:36;;;;;;;14.95;4.85;;;8.00;99.90;;;;;;5019754;28;20022;-35
2022/03/15 01:03:02;;;;;;;10.65;4.50;;;7.90;99.90;;;;;;5026291;28;20482;-35
2022/03/15 01:05:28;;;;;;;13.98;5.90;;;7.90;99.90;;;;;;5025892;28;20041;-32
2022/03/15 01:07:54;;;;;;;8.20;4.10;;;7.90;99.90;;;;;;5026067;28;20394;-33
2022/03/15 01:10:20;;;;;;;19.25;5.18;;;7.90;99.90;;;;;;5014522;28;20071;-39
2022/03/15 01:12:46;;;;;;;18.35;4.80;;;7.90;99.90;;;;;;5013988;28;20025;-37
2022/03/15 01:15:12;;;;;;;16.90;4.88;;;8.00;99.90;;;;;;5030783;28;20112;-40
2022/03/15 01:17:37;;;;;;;11.05;5.22;;;8.00;99.90;;;;;;5026299;28;20038;-38
2022/03/15 01:20:05;;;;;;;20.90;5.68;;;8.10;99.90;;;;;;5013995;28;20033;-33
2022/03/15 01:22:31;;;;;;;16.33;5.75;;;8.10;99.90;;;;;;5031211;28;20037;-34
2022/03/15 01:24:56;;;;;;;17.10;6.25;;;8.10;99.90;;;;;;5033028;28;20039;-39
2022/03/15 01:27:22;;;;;;;14.70;5.60;;;8.10;99.90;;;;;;5030183;28;20025;-39
2022/03/15 01:29:48;;;;;;;17.13;6.10;;;8.00;99.90;;;;;;5029183;28;20112;-39
2022/03/15 01:32:14;;;;;;;10.75;5.00;;;8.00;99.90;;;;;;5029150;28;20491;-50
2022/03/15 01:34:40;;;;;;;18.83;5.82;;;7.90;99.90;;;;;;5014949;28;20025;-40
2022/03/15 01:37:05;;;;;;;12.43;6.30;;;7.90;99.90;;;;;;5028034;28;20053;-38
2022/03/15 01:39:31;;;;;;;10.80;5.55;;;8.00;99.90;;;;;;5032230;28;20478;-39
2022/03/15 01:41:57;;;;;;;13.90;5.85;;;8.10;99.90;;;;;;5021146;28;20053;-38
2022/03/15 01:44:23;;;;;;;15.30;5.60;;;8.10;99.90;;;;;;5025562;28;20037;-38
2022/03/15 01:46:50;;;;;;;17.05;6.35;;;8.20;99.90;;;;;;5015827;28;20374;-41
2022/03/15 01:49:16;;;;;;;11.70;5.45;;;8.20;99.90;;;;;;5026654;28;20065;-41
2022/03/15 01:51:43;;;;;;;17.20;6.70;;;8.20;99.90;;;;;;5016161;28;20022;-39
2022/03/15 01:54:10;;;;;;;18.15;5.80;;;8.30;99.90;;;;;;5028243;28;20367;-41
2022/03/15 01:56:41;;;;;;;13.60;6.25;;;8.40;99.90;;;;;;5028953;28;20473;-46
2022/03/15 01:59:12;;;;;;;12.15;6.13;;;8.40;99.90;;;;;;5031681;28;20108;-44
2022/03/15 02:01:39;;;;;;;22.83;6.70;;;8.50;99.90;;;;;;5012020;28;20034;-36
2022/03/15 02:04:06;;;;;;;20.40;7.75;;;8.60;99.90;;;;;;5026100;28;20107;-41
2022/03/15 02:06:38;;;;;;;12.35;6.60;;;8.70;99.90;;;;;;5015408;28;20486;-37
2022/03/15 02:09:11;;;;;;;19.48;6.13;;;8.70;99.90;;;;;;5022997;28;20415;-37
2022/03/15 02:11:37;;;;;;;15.50;6.78;;;8.60;99.90;;;;;;5025426;28;20057;-40
2022/03/15 02:14:04;;;;;;;21.80;6.88;;;8.60;99.90;;;;;;5013202;28;20120;-33
2022/03/15 02:16:31;;;;;;;16.30;7.55;;;8.60;99.90;;;;;;5012918;28;20030;-33
2022/03/15 02:18:58;;;;;;;18.75;8.18;;;8.60;99.90;;;;;;5024298;28;20383;-37
2022/03/15 02:21:25;;;;;;;19.53;7.33;;;8.70;99.90;;;;;;5032742;28;20033;-33
2022/03/15 02:23:51;;;;;;;15.52;8.23;;;8.70;99.90;;;;;;5027601;28;20025;-34
2022/03/15 02:26:16;;;;;;;19.73;7.40;;;8.70;99.90;;;;;;5030355;28;20132;-36
2022/03/15 02:28:43;;;;;;;20.63;8.15;;;8.70;99.90;;;;;;5022274;28;20036;-31
2022/03/15 02:31:09;;;;;;;24.33;8.10;;;8.70;99.90;;;;;;5027006;28;20031;-31
2022/03/15 02:33:35;;;;;;;22.02;9.05;;;8.70;99.90;;;;;;5024270;28;20108;-35
2022/03/15 02:36:01;;;;;;;28.00;10.73;;;8.70;99.90;;;;;;5031188;28;20108;-32
2022/03/15 02:38:27;;;;;;;22.15;10.13;;;8.70;99.90;;;;;;5030595;28;20029;-34
2022/03/15 02:40:53;;;;;;;20.98;9.55;;;8.90;99.90;;;;;;5027429;28;20049;-37
2022/03/15 02:43:18;;;;;;;25.00;10.02;;;8.90;99.90;;;;;;5023816;28;20022;-37
2022/03/15 02:45:44;;;;;;;26.23;10.52;;;8.80;99.90;;;;;;5024845;28;20025;-34
2022/03/15 02:48:10;;;;;;;29.52;9.48;;;8.80;99.90;;;;;;5029561;28;20037;-36
2022/03/15 02:50:35;;;;;;;24.85;9.88;;;8.80;99.90;;;;;;5029100;28;20026;-29
2022/03/15 02:53:01;;;;;;;29.00;10.98;;;8.80;99.90;;;;;;5028002;28;20101;-33
2022/03/15 02:55:32;;;;;;;19.10;9.10;;;8.90;99.90;;;;;;5013418;28;20558;-35
2022/03/15 02:57:58;;;;;;;24.52;10.80;;;8.80;99.90;;;;;;5018789;28;20021;-34
2022/03/15 03:00:26;;;;;;;27.15;9.75;;;8.80;99.90;;;;;;5024342;28;20073;-40
2022/03/15 03:02:51;;;;;;;19.90;9.65;;;8.80;99.90;;;;;;5032972;28;20100;-38
2022/03/15 03:05:17;;;;;;;24.83;10.25;;;8.70;99.90;;;;;;5030308;28;20449;-38
2022/03/15 03:07:45;;;;;;;21.25;8.98;;;8.70;99.90;;;;;;5033085;28;20496;-41
2022/03/15 03:10:12;;;;;;;21.63;9.73;;;8.70;99.90;;;;;;5036150;28;20147;-48
2022/03/15 03:12:41;;;;;;;27.17;8.93;;;8.70;99.90;;;;;;5031770;28;20490;-38
2022/03/15 03:15:12;;;;;;;27.58;9.50;;;8.70;99.90;;;;;;5034940;28;20120;-39
2022/03/15 03:17:40;;;;;;;22.13;9.48;;;8.70;99.90;;;;;;5027881;28;21263;-39
2022/03/15 03:20:11;;;;;;;26.52;10.10;;;8.60;99.90;;;;;;5014933;28;20022;-37
2022/03/15 03:22:37;;;;;;;22.63;8.38;;;8.60;99.90;;;;;;5016818;28;20022;-38
2022/03/15 03:25:06;;;;;;;28.83;9.50;;;8.60;99.90;;;;;;5022763;28;20051;-38
2022/03/15 03:27:32;;;;;;;25.10;8.43;;;8.60;99.90;;;;;;5035017;28;20040;-38
2022/03/15 03:29:59;;;;;;;23.30;10.23;;;8.50;99.90;;;;;;5029757;28;20033;-38
2022/03/15 03:32:25;;;;;;;21.67;8.77;;;8.50;99.90;;;;;;5026292;28;20036;-38
2022/03/15 03:34:52;;;;;;;27.08;8.95;;;8.50;99.90;;;;;;5032422;28;20026;-37
2022/03/15 03:37:18;;;;;;;28.02;10.73;;;8.60;99.90;;;;;;5028733;28;20029;-39
2022/03/15 03:39:44;;;;;;;27.98;10.52;;;8.60;99.90;;;;;;5015769;28;20482;-34
2022/03/15 03:42:10;;;;;;;22.35;9.88;;;8.70;99.90;;;;;;5028262;28;20033;-32
2022/03/15 03:44:36;;;;;;;23.75;10.00;;;8.70;99.90;;;;;;5023450;28;20017;-34
2022/03/15 03:47:03;;;;;;;23.58;10.20;;;8.70;99.90;;;;;;5032968;28;20385;-32
2022/03/15 03:49:29;;;;;;;30.48;10.32;;;8.80;99.90;;;;;;5030933;28;20021;-32
2022/03/15 03:51:55;;;;;;;26.58;11.43;;;8.80;99.90;;;;;;5026504;28;20021;-34
2022/03/15 03:54:21;;;;;;;23.63;9.90;;;8.80;99.90;;;;;;5031670;28;20442;-36
2022/03/15 03:56:47;;;;;;;21.52;9.18;;;8.80;99.90;;;;;;5034226;28;20029;-32
2022/03/15 03:59:12;;;;;;;22.02;9.70;;;8.80;99.90;;;;;;5033938;28;20494;-60
2022/03/15 04:01:39;;;;;;;34.60;10.85;;;8.80;99.90;;;;;;5027437;28;20018;-32
2022/03/15 04:04:06;;;;;;;29.88;11.40;;;8.70;99.90;;;;;;5027209;28;20017;-34
2022/03/15 04:06:35;;;;;;;23.85;10.60;;;8.70;99.90;;;;;;5028666;28;20025;-36
2022/03/15 04:09:02;;;;;;;22.92;9.93;;;8.60;99.90;;;;;;5025879;28;20486;-31
2022/03/15 04:11:31;;;;;;;28.67;10.23;;;8.50;99.90;;;;;;5018289;28;20110;-32
2022/03/15 04:13:58;;;;;;;20.02;10.18;;;8.40;99.90;;;;;;5030197;28;20058;-34
2022/03/15 04:16:23;;;;;;;14.85;7.82;;;8.30;99.90;;;;;;5034532;28;20018;-33
2022/03/15 04:18:50;;;;;;;24.00;10.20;;;8.30;99.90;;;;;;5030978;28;20089;-35
2022/03/15 04:21:16;;;;;;;18.92;10.20;;;8.30;99.90;;;;;;5027510;28;20025;-32
2022/03/15 04:23:41;;;;;;;25.17;10.27;;;8.30;99.90;;;;;;5019847;28;20021;-34
2022/03/15 04:26:07;;;;;;;18.48;9.10;;;8.40;99.90;;;;;;5034669;28;20059;-32
2022/03/15 04:28:33;;;;;;;22.15;9.45;;;8.40;99.90;;;;;;5027243;28;20073;-32
2022/03/15 04:30:58;;;;;;;26.33;11.13;;;8.40;99.90;;;;;;5026301;28;20061;-32
2022/03/15 04:33:24;;;;;;;24.02;10.18;;;8.30;99.90;;;;;;5015601;28;20042;-35
2022/03/15 04:35:49;;;;;;;25.05;10.55;;;8.40;99.90;;;;;;5014925;28;20021;-33
2022/03/15 04:38:15;;;;;;;22.02;9.73;;;8.40;99.90;;;;;;5016791;28;20022;-32
2022/03/15 04:40:41;;;;;;;23.45;10.35;;;8.40;99.90;;;;;;5032536;28;20493;-31
2022/03/15 04:43:07;;;;;;;25.80;10.98;;;8.40;99.90;;;;;;5031837;28;20022;-31
2022/03/15 04:45:33;;;;;;;30.13;10.60;;;8.50;99.90;;;;;;5014893;28;20030;-31
2022/03/15 04:47:58;;;;;;;23.33;10.25;;;8.60;99.90;;;;;;5022982;28;20380;-37
2022/03/15 04:50:24;;;;;;;27.75;10.65;;;8.60;99.90;;;;;;5019285;28;20096;-32
2022/03/15 04:52:50;;;;;;;21.33;10.25;;;8.60;99.90;;;;;;5033303;28;20040;-33
2022/03/15 04:55:15;;;;;;;21.58;10.25;;;8.50;99.90;;;;;;5033660;28;20486;-34
2022/03/15 04:57:42;;;;;;;30.75;11.63;;;8.60;99.90;;;;;;5025286;28;20410;-31
2022/03/15 05:00:09;;;;;;;24.52;10.55;;;8.60;99.90;;;;;;5019612;28;20085;-37
2022/03/15 05:02:41;;;;;;;28.65;11.35;;;8.60;99.90;;;;;;5024136;28;20351;-37
2022/03/15 05:05:08;;;;;;;26.60;11.68;;;8.60;99.90;;;;;;5030842;28;20026;-41
2022/03/15 05:07:34;;;;;;;22.13;10.27;;;8.60;99.90;;;;;;5033407;28;20509;-34
2022/03/15 05:12:43;;;;;;;23.50;11.27;;;8.60;99.90;;;;;;5033359;28;20087;-34
2022/03/15 05:15:09;;;;;;;26.85;11.85;;;8.50;99.90;;;;;;5027061;28;20025;-37
2022/03/15 05:17:36;;;;;;;22.65;11.23;;;8.40;99.90;;;;;;5022370;28;20133;-32
2022/03/15 05:20:05;;;;;;;29.75;11.55;;;8.40;99.90;;;;;;5023417;28;20508;-37
2022/03/15 05:22:34;;;;;;;31.15;11.52;;;8.40;99.90;;;;;;5033286;28;20025;-31
2022/03/15 05:25:00;;;;;;;27.92;10.95;;;8.40;99.90;;;;;;5016585;28;20352;-32
2022/03/15 05:27:26;;;;;;;22.77;11.32;;;8.50;99.90;;;;;;5018959;28;20064;-32
2022/03/15 05:29:52;;;;;;;25.80;11.38;;;8.40;99.90;;;;;;5024367;28;20034;-39
2022/03/15 05:32:18;;;;;;;23.30;10.68;;;8.40;99.90;;;;;;5021559;28;20073;-35
2022/03/15 05:34:44;;;;;;;24.85;10.73;;;8.50;99.90;;;;;;5029870;28;20485;-38
2022/03/15 05:37:10;;;;;;;34.42;11.48;;;8.50;99.90;;;;;;5030604;28;20021;-31
2022/03/15 05:39:36;;;;;;;27.45;11.38;;;8.50;99.90;;;;;;5014712;28;20025;-34
2022/03/15 05:42:02;;;;;;;23.33;10.48;;;8.40;99.90;;;;;;5014457;28;20041;-38
2022/03/15 05:44:27;;;;;;;22.02;10.52;;;8.50;99.90;;;;;;5028418;28;20489;-32
2022/03/15 05:46:54;;;;;;;32.33;12.23;;;8.40;99.90;;;;;;5032932;28;20033;-31
2022/03/15 05:49:20;;;;;;;26.00;11.50;;;8.50;99.90;;;;;;5028445;28;20034;-35
2022/03/15 05:51:45;;;;;;;23.55;10.90;;;8.50;99.90;;;;;;5027831;28;20723;-33
2022/03/15 05:54:11;;;;;;;23.75;10.63;;;8.50;99.90;;;;;;5024450;28;20034;-34
2022/03/15 05:56:39;;;;;;;20.67;10.23;;;8.50;99.90;;;;;;5014517;28;20029;-32
2022/03/15 05:59:05;;;;;;;19.67;10.38;;;8.50;99.90;;;;;;5016953;28;20103;-31
2022/03/15 06:01:31;;;;;;;24.92;11.05;;;8.60;99.90;;;;;;5013262;28;20026;-37
2022/03/15 06:03:57;;;;;;;23.13;10.32;;;8.60;99.90;;;;;;5028214;28;20018;-32
2022/03/15 06:06:23;;;;;;;25.05;10.95;;;8.60;99.90;;;;;;5013553;28;20080;-35
2022/03/15 06:08:51;;;;;;;27.45;11.23;;;8.70;99.90;;;;;;5021466;28;20104;-33
2022/03/15 06:11:17;;;;;;;43.75;12.63;;;8.70;99.90;;;;;;5028627;28;20024;-35
2022/03/15 06:13:43;;;;;;;27.65;11.45;;;8.70;99.90;;;;;;5030001;28;20116;-33
2022/03/15 06:16:09;;;;;;;22.98;11.02;;;8.60;99.90;;;;;;5032683;28;20112;-38
2022/03/15 06:18:35;;;;;;;25.27;10.35;;;8.60;99.90;;;;;;5020103;28;20537;-36
2022/03/15 06:21:01;;;;;;;22.88;11.15;;;8.50;99.90;;;;;;5026908;28;20021;-32
2022/03/15 06:23:27;;;;;;;28.98;11.43;;;8.50;99.90;;;;;;5023001;28;20076;-33
2022/03/15 06:25:53;;;;;;;25.10;12.43;;;8.50;99.90;;;;;;5013070;28;20034;-33
2022/03/15 06:28:18;;;;;;;23.48;11.10;;;8.50;99.90;;;;;;5016951;28;20028;-32
2022/03/15 06:30:44;;;;;;;28.50;10.82;;;8.50;99.90;;;;;;5016124;28;20056;-34
2022/03/15 06:33:10;;;;;;;20.60;11.32;;;8.50;99.90;;;;;;5023819;28;20086;-32
2022/03/15 06:35:36;;;;;;;25.30;10.88;;;8.50;99.90;;;;;;5030867;28;20358;-38
2022/03/15 06:38:02;;;;;;;26.40;12.07;;;8.60;99.90;;;;;;5018130;28;20026;-33
2022/03/15 06:40:29;;;;;;;25.10;10.55;;;8.60;99.90;;;;;;5013723;28;20021;-32
2022/03/15 06:42:55;;;;;;;24.43;10.53;;;8.60;99.90;;;;;;5012770;28;20022;-35
2022/03/15 06:45:22;;;;;;;29.35;11.13;;;8.70;99.90;;;;;;5020796;28;20108;-31
2022/03/15 06:47:48;;;;;;;21.48;10.00;;;8.80;99.90;;;;;;5016036;28;20544;-34
2022/03/15 06:50:14;;;;;;;27.75;11.40;;;8.80;99.90;;;;;;5030626;28;20052;-35
2022/03/15 06:52:42;;;;;;;22.63;10.75;;;8.70;99.90;;;;;;5031342;28;20028;-36
2022/03/15 06:55:08;;;;;;;;;;;8.70;99.90;;;;;;5018817;28;20049;-37
2022/03/15 06:57:34;;;;;;;28.02;10.90;;;8.70;99.90;;;;;;5022345;28;20010;-42
2022/03/15 07:00:02;;;;;;;21.08;11.27;;;8.70;99.90;;;;;;5029799;28;20427;-40
2022/03/15 07:02:27;;;;;;;28.38;12.13;;;8.70;99.90;;;;;;5031961;28;20025;-45
2022/03/15 07:04:54;;;;;;;20.25;10.32;;;8.80;99.90;;;;;;5025034;28;20026;-53
2022/03/15 07:07:20;;;;;;;23.95;10.82;;;8.80;99.90;;;;;;5031700;28;20048;-38
2022/03/15 07:09:46;;;;;;;22.52;10.70;;;8.80;99.90;;;;;;5032038;28;20029;-38
2022/03/15 07:12:12;;;;;;;21.17;10.05;;;8.90;99.90;;;;;;5019929;28;20057;-38
2022/03/15 07:14:37;;;;;;;17.50;9.85;;;8.90;99.90;;;;;;5031570;28;20040;-36
2022/03/15 07:17:03;;;;;;;18.05;9.82;;;9.00;99.90;;;;;;5020190;28;20501;-39
2022/03/15 07:19:29;;;;;;;20.90;10.00;;;9.10;99.90;;;;;;5030593;28;20404;-39
2022/03/15 07:21:54;;;;;;;23.58;10.25;;;9.10;99.90;;;;;;5026334;28;20025;-41
2022/03/15 07:24:21;;;;;;;18.15;9.48;;;9.10;99.90;;;;;;5031738;28;20026;-39
2022/03/15 07:26:46;;;;;;;16.63;9.52;;;9.10;99.90;;;;;;5028797;28;20393;-39
2022/03/15 07:29:12;;;;;;;24.17;10.23;;;9.20;99.90;;;;;;5030573;28;20030;-41
2022/03/15 07:31:37;;;;;;;27.80;10.07;;;9.20;99.90;;;;;;5019742;28;20124;-41
2022/03/15 07:34:03;;;;;;;20.35;9.23;;;9.10;99.90;;;;;;5030498;28;20116;-39
2022/03/15 07:36:29;;;;;;;20.15;8.80;;;9.10;99.90;;;;;;5029210;28;20108;-39
2022/03/15 07:38:55;;;;;;;17.30;8.77;;;9.10;99.90;;;;;;5031800;28;20482;-30
2022/03/15 07:41:23;;;;;;;23.10;9.85;;;9.10;99.90;;;;;;5031704;28;20493;-32
2022/03/15 07:43:49;;;;;;;22.52;10.10;;;9.20;99.90;;;;;;5031473;28;20386;-34
2022/03/15 07:46:15;;;;;;;18.30;9.00;;;9.20;99.90;;;;;;5032867;28;20029;-40
2022/03/15 07:48:40;;;;;;;23.65;9.80;;;9.20;99.90;;;;;;5020009;28;20042;-33
2022/03/15 07:51:06;;;;;;;33.97;10.80;;;9.30;99.90;;;;;;5016964;28;20031;-31
2022/03/15 07:53:32;;;;;;;25.05;10.40;;;9.30;99.90;;;;;;5029222;28;20108;-47
2022/03/15 07:56:00;;;;;;;20.70;9.50;;;9.40;99.90;;;;;;5033940;28;20187;-31
2022/03/15 07:58:26;;;;;;;16.80;9.00;;;9.40;99.90;;;;;;5016723;28;20115;-30
2022/03/15 08:00:54;;;;;;;14.95;7.57;;;9.50;99.90;;;;;;5021668;28;20493;-30
2022/03/15 08:03:22;;;;;;;16.77;8.63;;;9.40;99.90;;;;;;5018311;28;20025;-30
2022/03/15 08:05:47;;;;;;;19.40;8.48;;;9.40;99.90;;;;;;5021618;28;20048;-35
2022/03/15 08:08:13;;;;;;;14.52;8.70;;;9.40;99.90;;;;;;5019106;28;20030;-34
2022/03/15 08:10:39;;;;;;;14.93;8.27;;;9.40;99.90;;;;;;5024923;28;20033;-30
2022/03/15 08:13:05;;;;;;;19.75;8.30;;;9.50;99.90;;;;;;5023546;28;20084;-31
2022/03/15 08:15:30;;;;;;;15.30;8.95;;;9.50;99.90;;;;;;5024579;28;20026;-36
2022/03/15 08:17:56;;;;;;;15.48;7.75;;;9.50;99.90;;;;;;5023178;28;20044;-34
2022/03/15 08:20:23;;;;;;;14.50;8.02;;;9.50;99.90;;;;;;5031881;28;20057;-32
2022/03/15 08:22:49;;;;;;;17.95;8.52;;;9.50;99.90;;;;;;5034164;28;20026;-34
2022/03/15 08:25:15;;;;;;;16.23;8.35;;;9.60;99.90;;;;;;5023305;28;20045;-34
2022/03/15 08:27:40;;;;;;;16.70;7.47;;;9.60;99.90;;;;;;5017012;28;20389;-36
2022/03/15 08:30:07;;;;;;;14.93;8.15;;;9.70;99.90;;;;;;5023313;28;20042;-41
2022/03/15 08:32:32;;;;;;;24.35;7.82;;;9.70;99.90;;;;;;5019653;28;20033;-32
2022/03/15 08:34:58;;;;;;;13.82;7.63;;;9.70;99.90;;;;;;5025582;28;20064;-34
2022/03/15 08:37:24;;;;;;;14.63;7.57;;;9.80;99.90;;;;;;5021245;28;20017;-33
2022/03/15 08:39:50;;;;;;;11.27;7.03;;;9.80;99.90;;;;;;5023632;28;20025;-35
2022/03/15 08:42:15;;;;;;;15.93;8.77;;;9.90;99.90;;;;;;5014719;28;20026;-32
2022/03/15 08:44:44;;;;;;;16.23;7.40;;;9.90;99.90;;;;;;5028376;28;20036;-34
2022/03/15 08:47:09;;;;;;;17.10;8.40;;;10.00;99.90;;;;;;5021344;28;20479;-40
2022/03/15 08:49:35;;;;;;;18.17;8.23;;;10.10;99.90;;;;;;5020503;28;20029;-48
2022/03/15 08:52:01;;;;;;;13.18;7.18;;;10.10;99.90;;;;;;5021968;28;20083;-40
2022/03/15 08:54:27;;;;;;;13.48;7.00;;;10.20;99.90;;;;;;5019327;28;20029;-40
2022/03/15 08:56:53;;;;;;;17.90;7.15;;;10.20;99.90;;;;;;5029673;28;20025;-39
2022/03/15 08:59:20;;;;;;;16.70;7.30;;;10.30;99.90;;;;;;5022106;28;20025;-38
2022/03/15 09:01:46;;;;;;;15.02;7.80;;;10.20;99.90;;;;;;5017846;28;20026;-40
2022/03/15 09:04:12;;;;;;;15.70;7.03;;;10.30;99.90;;;;;;5026908;28;20022;-39
2022/03/15 09:06:37;;;;;;;15.82;7.03;;;10.40;99.90;;;;;;5018831;28;20060;-38
2022/03/15 09:09:04;;;;;;;11.45;6.97;;;10.50;99.90;;;;;;5022578;28;20367;-39
2022/03/15 09:11:31;;;;;;;13.80;6.28;;;10.50;99.90;;;;;;5023352;28;20455;-40
2022/03/15 09:13:57;;;;;;;17.65;7.13;;;10.40;99.90;;;;;;5028249;28;20437;-48
2022/03/15 09:16:23;;;;;;;12.10;6.30;;;10.50;99.90;;;;;;5028204;28;20442;-39
2022/03/15 09:18:49;;;;;;;13.75;6.50;;;10.50;99.90;;;;;;5025532;28;20057;-35
2022/03/15 09:21:15;;;;;;;15.05;7.18;;;10.50;99.90;;;;;;5024743;28;20544;-40
2022/03/15 09:23:41;;;;;;;15.90;6.47;;;10.50;99.90;;;;;;5024382;28;20101;-40
2022/03/15 09:26:07;;;;;;;11.82;6.53;;;10.60;99.90;;;;;;5026004;28;20112;-38
2022/03/15 09:28:33;;;;;;;18.05;6.80;;;10.70;99.90;;;;;;5033585;28;20033;-39
2022/03/15 09:31:00;;;;;;;13.73;6.85;;;10.70;99.90;;;;;;5029190;28;20032;-40
2022/03/15 09:33:26;;;;;;;16.27;6.95;;;10.80;99.90;;;;;;5033303;28;20422;-40
2022/03/15 09:35:52;;;;;;;21.80;6.65;;;10.90;99.90;;;;;;5030576;28;20109;-40
2022/03/15 09:38:19;;;;;;;12.48;5.80;;;11.00;99.90;;;;;;5020236;28;20048;-31
2022/03/15 09:40:49;;;;;;;7.13;5.30;;;11.10;99.90;;;;;;5017735;28;20022;-34
2022/03/15 09:43:16;;;;;;;14.25;5.88;;;11.10;99.90;;;;;;5013983;28;20486;-34
2022/03/15 09:45:43;;;;;;;7.93;5.38;;;11.20;99.90;;;;;;5024157;28;20104;-49
2022/03/15 09:48:15;;;;;;;8.00;5.43;;;11.30;99.90;;;;;;5024714;28;20105;-43
2022/03/15 09:50:42;;;;;;;12.55;6.00;;;11.30;99.90;;;;;;5032809;28;20017;-33
2022/03/15 09:53:09;;;;;;;14.20;6.05;;;11.50;99.90;;;;;;5029655;28;20030;-41
2022/03/15 09:55:37;;;;;;;10.85;5.38;;;11.60;99.90;;;;;;5029456;28;20207;-36
2022/03/15 09:58:03;;;;;;;12.60;5.93;;;11.70;99.90;;;;;;5032464;28;20055;-37
2022/03/15 10:00:30;;;;;;;11.40;4.97;;;11.70;99.90;;;;;;5030821;28;20072;-38
2022/03/15 10:02:55;;;;;;;12.77;5.07;;;11.80;99.90;;;;;;5026040;28;20080;-61
2022/03/15 10:05:21;;;;;;;14.52;5.18;;;11.80;99.90;;;;;;5027350;28;20386;-33
2022/03/15 10:07:47;;;;;;;15.25;5.93;;;11.90;99.90;;;;;;5031110;28;20032;-32
2022/03/15 10:10:14;;;;;;;13.45;5.38;;;11.80;99.90;;;;;;5026629;28;20113;-32
2022/03/15 10:12:40;;;;;;;10.77;4.60;;;11.80;99.90;;;;;;5023121;28;20582;-36
2022/03/15 10:15:19;;;;;;;12.18;4.88;;;11.80;99.90;;;;;;5029131;28;20363;-33
2022/03/15 10:18:04;;;;;;;13.20;5.60;;;11.80;99.90;;;;;;5030273;28;20088;-39
2022/03/15 10:20:38;;;;;;;17.63;5.22;;;11.90;99.90;;;;;;5022028;28;20439;-34
2022/03/15 10:23:03;;;;;;;8.40;4.72;;;11.90;99.90;;;;;;5017082;28;20030;-34
2022/03/15 10:25:31;;;;;;;12.80;5.40;;;12.00;99.90;;;;;;5024512;28;20036;-35
2022/03/15 10:27:59;;;;;;;8.05;5.07;;;12.10;99.90;;;;;;5020603;28;20045;-36
2022/03/15 10:30:27;;;;;;;7.32;4.82;;;12.20;99.90;;;;;;5020329;28;20084;-33
2022/03/15 10:32:53;;;;;;;11.43;4.95;;;12.40;99.90;;;;;;5019270;28;20061;-39
2022/03/15 10:35:35;;;;;;;12.10;4.97;;;12.40;99.90;;;;;;5020357;28;20538;-37
2022/03/15 10:38:03;;;;;;;11.85;4.40;;;12.60;99.90;;;;;;5019791;28;20022;-34
2022/03/15 10:40:35;;;;;;;10.95;4.93;;;12.70;99.90;;;;;;5016689;28;20060;-40
2022/03/15 10:43:09;;;;;;;7.53;4.50;;;12.80;99.90;;;;;;5015670;28;20057;-39
2022/03/15 10:45:40;;;;;;;10.48;4.57;;;12.70;99.90;;;;;;5014378;28;20026;-32
2022/03/15 10:48:20;;;;;;;9.50;4.22;;;12.70;99.90;;;;;;5028937;28;20030;-37
2022/03/15 10:50:54;;;;;;;8.05;4.43;;;12.70;99.90;;;;;;5018794;28;20025;-35
2022/03/15 10:53:22;;;;;;;11.25;4.78;;;12.60;99.90;;;;;;5022285;28;20026;-32
2022/03/15 10:55:48;;;;;;;10.38;4.78;;;12.60;99.90;;;;;;5021598;28;20493;-35
2022/03/15 10:58:21;;;;;;;10.27;4.93;;;12.60;99.90;;;;;;5022297;28;20029;-34
2022/03/15 11:00:50;;;;;;;8.93;4.30;;;12.60;99.90;;;;;;5023053;28;20115;-34
2022/03/15 11:03:23;;;;;;;9.93;4.72;;;12.60;99.90;;;;;;5020577;28;20025;-31
2022/03/15 11:05:50;;;;;;;9.02;4.70;;;12.60;99.90;;;;;;5023220;28;20153;-38
2022/03/15 11:08:17;;;;;;;5.07;3.77;;;12.60;99.90;;;;;;5022868;28;20022;-32
2022/03/15 11:10:48;;;;;;;12.20;4.90;;;12.60;99.90;;;;;;5023385;28;20386;-39
2022/03/15 11:13:15;;;;;;;11.05;4.45;;;12.60;99.90;;;;;;5021054;28;20125;-36
2022/03/15 11:15:42;;;;;;;7.07;4.07;;;12.70;99.90;;;;;;5028526;28;20493;-33
2022/03/15 11:18:10;;;;;;;9.83;4.60;;;12.70;99.90;;;;;;5027938;28;20049;-39
2022/03/15 11:20:37;;;;;;;;;;;12.70;99.90;;;;;;5021895;28;20078;-33
2022/03/15 11:23:05;;;;;;;12.17;5.00;;;12.70;99.90;;;;;;5024306;28;20293;-39
2022/03/15 11:25:59;;;;;;;12.38;4.68;;;12.70;99.90;;;;;;5023588;28;20291;-47
2022/03/15 11:28:29;;;;;;;8.52;4.18;;;12.90;99.90;;;;;;5022199;28;20543;-34
2022/03/15 11:30:56;;;;;;;10.60;3.70;;;13.30;99.90;;;;;;5025013;28;20033;-35
2022/03/15 11:33:23;;;;;;;9.00;4.10;;;13.50;99.90;;;;;;5021361;28;20072;-38
2022/03/15 11:35:49;;;;;;;6.75;4.55;;;13.70;99.90;;;;;;5022763;28;20312;-40
2022/03/15 11:38:15;;;;;;;7.53;3.83;;;14.00;99.90;;;;;;5024685;28;20083;-35
2022/03/15 11:40:45;;;;;;;11.25;3.60;;;14.20;99.90;;;;;;5022751;28;20051;-31
2022/03/15 11:43:34;;;;;;;6.95;3.60;;;14.30;99.90;;;;;;5027359;28;20032;-38
2022/03/15 11:46:35;;;;;;;7.63;3.72;;;14.30;99.90;;;;;;5024435;28;20386;-33
2022/03/15 11:49:04;;;;;;;9.48;4.22;;;14.50;99.90;;;;;;5018768;28;20460;-35
2022/03/15 11:51:34;;;;;;;7.13;3.70;;;14.70;99.90;;;;;;5024038;28;20390;-32
2022/03/15 11:54:35;;;;;;;7.78;3.35;;;14.70;99.90;;;;;;5026418;28;20079;-33
2022/03/15 11:57:04;;;;;;;6.07;3.40;;;14.90;99.90;;;;;;4999348;28;20053;-33
2022/03/15 11:59:46;;;;;;;8.68;3.03;;;14.90;99.90;;;;;;5020652;28;20041;-31
2022/03/15 12:02:12;;;;;;;6.78;3.22;;;15.00;99.90;;;;;;5025712;28;20386;-36
2022/03/15 12:04:45;;;;;;;7.25;3.08;;;15.10;99.90;;;;;;5022194;28;20037;-31
2022/03/15 12:07:13;;;;;;;9.07;3.00;;;15.10;99.90;;;;;;5024969;28;20516;-32
2022/03/15 12:09:47;;;;;;;5.68;2.72;;;15.20;99.90;;;;;;5025470;28;20018;-37
2022/03/15 12:12:12;;;;;;;4.35;2.78;;;15.10;99.90;;;;;;5023053;28;20033;-35
2022/03/15 12:14:44;;;;;;;7.00;2.47;;;15.20;99.90;;;;;;5025553;28;20030;-35
2022/03/15 12:17:15;;;;;;;6.40;2.92;;;15.40;99.90;;;;;;5023180;28;20053;-40
2022/03/15 12:19:50;;;;;;;7.80;3.40;;;15.70;99.90;;;;;;5024862;28;20021;-33
2022/03/15 12:22:29;;;;;;;7.90;3.42;;;15.80;99.90;;;;;;5025000;28;20129;-34
2022/03/15 12:25:14;;;;;;;5.53;3.55;;;15.90;99.90;;;;;;5033312;28;20097;-35
2022/03/15 12:27:52;;;;;;;9.23;2.92;;;16.00;99.90;;;;;;5015516;28;20032;-32
2022/03/15 12:30:28;;;;;;;8.27;2.65;;;16.10;99.90;;;;;;5013948;28;20033;-38
2022/03/15 12:32:56;;;;;;;7.47;3.00;;;16.20;98.90;;;;;;5014769;28;20026;-33
2022/03/15 12:35:26;;;;;;;5.63;3.10;;;16.10;99.30;;;;;;5014633;28;20030;-40
2022/03/15 12:38:06;;;;;;;8.00;3.00;;;16.10;99.30;;;;;;5015071;28;20028;-33
2022/03/15 12:40:33;;;;;;;7.78;2.15;;;16.30;98.80;;;;;;5014686;28;20080;-44
2022/03/15 12:43:01;;;;;;;5.05;2.22;;;16.40;98.20;;;;;;5015062;28;20030;-36
2022/03/15 12:45:29;;;;;;;3.10;2.00;;;16.40;97.40;;;;;;5014478;28;20053;-40
2022/03/15 12:48:05;;;;;;;2.80;2.00;;;16.40;98.30;;;;;;5012857;28;20062;-35